sensor_id;sensor_type;location;lat;lon;timestamp;noise_LAeq;noise_LA_min;noise_LA_max;noise_LA01;noise_LA95
37163;Laerm;23057;48.554;14.454;2023-07-30T00:00:59;54.55;48.92;73.30;;
37163;Laerm;23057;48.554;14.454;2023-07-30T00:03:29;58.58;49.24;76.92;;
37163;Laerm;23057;48.554;14.454;2023-07-30T00:06:01;54.48;49.92;74.64;;
37163;Laerm;23057;48.554;14.454;2023-07-30T00:08:31;55.07;49.88;75.16;;
37163;Laerm;23057;48.554;14.454;2023-07-30T00:11:02;55.78;50.05;74.10;;
37163;Laerm;23057;48.554;14.454;2023-07-30T00:13:33;60.45;49.93;76.35;;
37163;Laerm;23057;48.554;14.454;2023-07-30T00:16:04;60.24;49.33;79.45;;
37163;Laerm;23057;48.554;14.454;2023-07-30T00:18:35;55.71;49.53;73.80;;
37163;Laerm;23057;48.554;14.454;2023-07-30T00:21:06;56.11;49.74;68.44;;
37163;Laerm;23057;48.554;14.454;2023-07-30T00:23:36;55.27;48.85;74.04;;
37163;Laerm;23057;48.554;14.454;2023-07-30T00:26:07;51.62;49.12;58.87;;
37163;Laerm;23057;48.554;14.454;2023-07-30T00:28:38;61.19;49.00;72.55;;
37163;Laerm;23057;48.554;14.454;2023-07-30T00:31:09;55.61;49.64;72.60;;
37163;Laerm;23057;48.554;14.454;2023-07-30T00:33:40;62.33;49.60;79.22;;
37163;Laerm;23057;48.554;14.454;2023-07-30T00:36:11;59.15;49.27;67.85;;
37163;Laerm;23057;48.554;14.454;2023-07-30T00:38:42;53.71;48.91;67.61;;
37163;Laerm;23057;48.554;14.454;2023-07-30T00:41:12;63.24;49.79;78.68;;
37163;Laerm;23057;48.554;14.454;2023-07-30T00:43:43;67.51;49.36;80.86;;
37163;Laerm;23057;48.554;14.454;2023-07-30T00:46:16;62.44;49.20;81.24;;
37163;Laerm;23057;48.554;14.454;2023-07-30T00:48:47;58.68;49.14;71.29;;
37163;Laerm;23057;48.554;14.454;2023-07-30T00:51:20;58.96;49.36;73.58;;
37163;Laerm;23057;48.554;14.454;2023-07-30T00:53:51;58.46;50.09;74.08;;
37163;Laerm;23057;48.554;14.454;2023-07-30T00:56:22;62.66;48.92;73.25;;
37163;Laerm;23057;48.554;14.454;2023-07-30T00:58:54;56.30;49.66;69.86;;
37163;Laerm;23057;48.554;14.454;2023-07-30T01:01:25;55.71;49.65;64.76;;
37163;Laerm;23057;48.554;14.454;2023-07-30T01:03:56;64.17;49.84;75.25;;
37163;Laerm;23057;48.554;14.454;2023-07-30T01:06:27;63.44;49.18;77.53;;
37163;Laerm;23057;48.554;14.454;2023-07-30T01:08:58;55.88;48.91;70.56;;
37163;Laerm;23057;48.554;14.454;2023-07-30T01:11:30;55.34;48.98;69.02;;
37163;Laerm;23057;48.554;14.454;2023-07-30T01:14:01;57.20;48.95;71.42;;
37163;Laerm;23057;48.554;14.454;2023-07-30T01:16:32;63.34;49.58;74.17;;
37163;Laerm;23057;48.554;14.454;2023-07-30T01:19:06;60.85;50.29;68.47;;
37163;Laerm;23057;48.554;14.454;2023-07-30T01:21:37;54.04;50.03;63.37;;
37163;Laerm;23057;48.554;14.454;2023-07-30T01:24:08;54.65;49.45;64.18;;
37163;Laerm;23057;48.554;14.454;2023-07-30T01:26:57;53.52;49.66;69.03;;
37163;Laerm;23057;48.554;14.454;2023-07-30T01:29:42;58.07;49.70;71.12;;
37163;Laerm;23057;48.554;14.454;2023-07-30T01:32:15;55.01;49.30;70.03;;
37163;Laerm;23057;48.554;14.454;2023-07-30T01:34:49;59.73;49.50;70.59;;
37163;Laerm;23057;48.554;14.454;2023-07-30T01:37:22;69.32;49.67;80.32;;
37163;Laerm;23057;48.554;14.454;2023-07-30T01:39:55;69.80;49.28;79.76;;
37163;Laerm;23057;48.554;14.454;2023-07-30T01:42:30;59.00;50.08;71.20;;
37163;Laerm;23057;48.554;14.454;2023-07-30T01:45:01;64.18;49.23;76.02;;
37163;Laerm;23057;48.554;14.454;2023-07-30T01:47:32;56.43;48.94;72.01;;
37163;Laerm;23057;48.554;14.454;2023-07-30T01:50:03;65.38;50.39;75.15;;
37163;Laerm;23057;48.554;14.454;2023-07-30T01:52:34;71.38;49.94;79.13;;
37163;Laerm;23057;48.554;14.454;2023-07-30T01:55:06;61.09;49.08;78.70;;
37163;Laerm;23057;48.554;14.454;2023-07-30T01:57:37;59.18;49.98;64.68;;
37163;Laerm;23057;48.554;14.454;2023-07-30T02:00:08;57.03;49.23;73.38;;
37163;Laerm;23057;48.554;14.454;2023-07-30T02:02:39;58.60;49.32;72.52;;
37163;Laerm;23057;48.554;14.454;2023-07-30T02:05:10;59.02;50.46;67.38;;
37163;Laerm;23057;48.554;14.454;2023-07-30T02:07:41;58.72;50.16;68.61;;
37163;Laerm;23057;48.554;14.454;2023-07-30T02:10:12;60.31;50.05;71.31;;
37163;Laerm;23057;48.554;14.454;2023-07-30T02:12:43;59.24;49.82;70.87;;
37163;Laerm;23057;48.554;14.454;2023-07-30T02:15:14;57.91;49.41;70.73;;
37163;Laerm;23057;48.554;14.454;2023-07-30T02:17:44;52.91;48.95;62.16;;
37163;Laerm;23057;48.554;14.454;2023-07-30T02:20:15;54.14;49.27;63.21;;
37163;Laerm;23057;48.554;14.454;2023-07-30T02:22:46;58.62;50.31;65.46;;
37163;Laerm;23057;48.554;14.454;2023-07-30T02:25:17;59.74;51.25;65.72;;
37163;Laerm;23057;48.554;14.454;2023-07-30T02:27:48;58.68;50.33;68.78;;
37163;Laerm;23057;48.554;14.454;2023-07-30T02:30:19;59.71;49.49;72.87;;
37163;Laerm;23057;48.554;14.454;2023-07-30T02:32:50;56.94;50.23;71.25;;
37163;Laerm;23057;48.554;14.454;2023-07-30T02:35:21;53.90;49.63;67.88;;
37163;Laerm;23057;48.554;14.454;2023-07-30T02:37:51;61.08;49.29;75.94;;
37163;Laerm;23057;48.554;14.454;2023-07-30T02:40:22;57.44;50.76;70.96;;
37163;Laerm;23057;48.554;14.454;2023-07-30T02:42:53;59.63;49.80;71.97;;
37163;Laerm;23057;48.554;14.454;2023-07-30T02:45:24;61.12;50.35;77.39;;
37163;Laerm;23057;48.554;14.454;2023-07-30T02:47:54;62.55;49.88;79.29;;
37163;Laerm;23057;48.554;14.454;2023-07-30T02:50:25;54.73;50.16;62.86;;
37163;Laerm;23057;48.554;14.454;2023-07-30T02:52:56;60.94;49.64;76.51;;
37163;Laerm;23057;48.554;14.454;2023-07-30T02:55:27;61.17;49.23;77.41;;
37163;Laerm;23057;48.554;14.454;2023-07-30T02:57:58;61.51;49.19;72.74;;
37163;Laerm;23057;48.554;14.454;2023-07-30T03:00:29;57.34;49.53;69.97;;
37163;Laerm;23057;48.554;14.454;2023-07-30T03:03:00;60.66;49.56;73.85;;
37163;Laerm;23057;48.554;14.454;2023-07-30T03:05:30;62.37;49.64;70.80;;
37163;Laerm;23057;48.554;14.454;2023-07-30T03:08:01;61.98;49.66;71.28;;
37163;Laerm;23057;48.554;14.454;2023-07-30T03:10:32;62.34;49.90;70.46;;
37163;Laerm;23057;48.554;14.454;2023-07-30T03:13:03;62.43;49.32;71.39;;
37163;Laerm;23057;48.554;14.454;2023-07-30T03:15:34;62.07;49.45;71.20;;
37163;Laerm;23057;48.554;14.454;2023-07-30T03:18:05;61.47;49.12;71.13;;
37163;Laerm;23057;48.554;14.454;2023-07-30T03:20:35;60.75;49.25;71.19;;
37163;Laerm;23057;48.554;14.454;2023-07-30T03:23:06;59.48;49.27;70.07;;
37163;Laerm;23057;48.554;14.454;2023-07-30T03:25:37;62.06;49.39;70.71;;
37163;Laerm;23057;48.554;14.454;2023-07-30T03:28:08;61.86;49.29;71.59;;
37163;Laerm;23057;48.554;14.454;2023-07-30T03:30:39;62.63;53.06;74.34;;
37163;Laerm;23057;48.554;14.454;2023-07-30T03:33:09;69.33;49.90;75.56;;
37163;Laerm;23057;48.554;14.454;2023-07-30T03:35:40;56.79;48.99;74.99;;
37163;Laerm;23057;48.554;14.454;2023-07-30T03:38:11;59.89;49.29;71.18;;
37163;Laerm;23057;48.554;14.454;2023-07-30T03:40:42;55.66;48.95;71.43;;
37163;Laerm;23057;48.554;14.454;2023-07-30T03:43:13;56.93;49.50;68.56;;
37163;Laerm;23057;48.554;14.454;2023-07-30T03:45:43;57.67;49.97;71.20;;
37163;Laerm;23057;48.554;14.454;2023-07-30T03:48:14;54.50;49.00;63.62;;
37163;Laerm;23057;48.554;14.454;2023-07-30T03:50:45;51.65;48.70;63.59;;
37163;Laerm;23057;48.554;14.454;2023-07-30T03:53:16;52.40;48.70;65.24;;
37163;Laerm;23057;48.554;14.454;2023-07-30T03:55:46;55.62;48.90;62.38;;
37163;Laerm;23057;48.554;14.454;2023-07-30T03:58:17;54.79;49.02;60.82;;
37163;Laerm;23057;48.554;14.454;2023-07-30T04:00:48;55.38;49.41;60.64;;
37163;Laerm;23057;48.554;14.454;2023-07-30T04:03:19;54.69;49.18;60.06;;
37163;Laerm;23057;48.554;14.454;2023-07-30T04:05:50;54.85;49.10;61.01;;
37163;Laerm;23057;48.554;14.454;2023-07-30T04:08:20;55.16;49.18;59.65;;
37163;Laerm;23057;48.554;14.454;2023-07-30T04:10:51;54.98;49.34;63.18;;
37163;Laerm;23057;48.554;14.454;2023-07-30T04:13:22;53.73;49.07;59.74;;
37163;Laerm;23057;48.554;14.454;2023-07-30T04:15:53;51.17;48.94;58.26;;
37163;Laerm;23057;48.554;14.454;2023-07-30T04:18:24;50.51;48.98;61.15;;
37163;Laerm;23057;48.554;14.454;2023-07-30T04:20:55;50.98;48.98;58.27;;
37163;Laerm;23057;48.554;14.454;2023-07-30T04:23:26;51.77;49.08;58.21;;
37163;Laerm;23057;48.554;14.454;2023-07-30T04:25:57;51.80;49.04;58.81;;
37163;Laerm;23057;48.554;14.454;2023-07-30T04:28:28;52.20;49.10;62.13;;
37163;Laerm;23057;48.554;14.454;2023-07-30T04:30:59;53.17;49.36;60.64;;
37163;Laerm;23057;48.554;14.454;2023-07-30T04:33:29;53.04;49.74;58.18;;
37163;Laerm;23057;48.554;14.454;2023-07-30T04:36:00;53.14;49.82;64.63;;
37163;Laerm;23057;48.554;14.454;2023-07-30T04:38:31;52.53;49.40;57.17;;
37163;Laerm;23057;48.554;14.454;2023-07-30T04:41:02;51.15;48.94;56.50;;
37163;Laerm;23057;48.554;14.454;2023-07-30T04:43:32;50.43;48.61;55.54;;
37163;Laerm;23057;48.554;14.454;2023-07-30T04:46:03;50.59;48.77;55.66;;
37163;Laerm;23057;48.554;14.454;2023-07-30T04:48:34;50.39;48.83;59.79;;
37163;Laerm;23057;48.554;14.454;2023-07-30T04:51:05;50.35;48.83;55.65;;
37163;Laerm;23057;48.554;14.454;2023-07-30T04:53:36;50.70;48.83;54.76;;
37163;Laerm;23057;48.554;14.454;2023-07-30T04:56:07;51.44;48.83;55.54;;
37163;Laerm;23057;48.554;14.454;2023-07-30T04:58:37;52.23;48.90;57.73;;
37163;Laerm;23057;48.554;14.454;2023-07-30T05:01:08;51.71;49.43;57.30;;
37163;Laerm;23057;48.554;14.454;2023-07-30T05:03:39;51.68;49.06;59.18;;
37163;Laerm;23057;48.554;14.454;2023-07-30T05:06:10;53.16;48.91;60.98;;
37163;Laerm;23057;48.554;14.454;2023-07-30T05:08:41;52.64;48.94;58.90;;
37163;Laerm;23057;48.554;14.454;2023-07-30T05:11:11;50.86;48.88;58.84;;
37163;Laerm;23057;48.554;14.454;2023-07-30T05:13:42;51.90;48.92;58.21;;
37163;Laerm;23057;48.554;14.454;2023-07-30T05:16:13;51.02;48.45;58.66;;
37163;Laerm;23057;48.554;14.454;2023-07-30T05:18:44;49.82;48.55;57.35;;
37163;Laerm;23057;48.554;14.454;2023-07-30T05:21:15;49.88;48.46;57.33;;
37163;Laerm;23057;48.554;14.454;2023-07-30T05:23:46;49.91;48.66;58.08;;
37163;Laerm;23057;48.554;14.454;2023-07-30T05:26:16;49.91;48.56;54.65;;
37163;Laerm;23057;48.554;14.454;2023-07-30T05:28:47;50.51;48.67;57.95;;
37163;Laerm;23057;48.554;14.454;2023-07-30T05:31:18;51.99;49.32;57.90;;
37163;Laerm;23057;48.554;14.454;2023-07-30T05:33:49;51.21;49.23;56.76;;
37163;Laerm;23057;48.554;14.454;2023-07-30T05:36:20;50.60;48.87;58.79;;
37163;Laerm;23057;48.554;14.454;2023-07-30T05:38:50;51.10;48.77;60.09;;
37163;Laerm;23057;48.554;14.454;2023-07-30T05:41:21;53.26;50.57;60.08;;
37163;Laerm;23057;48.554;14.454;2023-07-30T05:43:52;52.37;49.04;64.21;;
37163;Laerm;23057;48.554;14.454;2023-07-30T05:46:23;57.57;49.20;65.46;;
37163;Laerm;23057;48.554;14.454;2023-07-30T05:48:54;50.24;48.76;61.91;;
37163;Laerm;23057;48.554;14.454;2023-07-30T05:51:25;51.78;48.95;61.71;;
37163;Laerm;23057;48.554;14.454;2023-07-30T05:53:56;51.46;49.07;57.56;;
37163;Laerm;23057;48.554;14.454;2023-07-30T05:56:26;54.63;50.27;64.98;;
37163;Laerm;23057;48.554;14.454;2023-07-30T05:58:57;55.87;51.89;65.72;;
37163;Laerm;23057;48.554;14.454;2023-07-30T06:01:28;53.74;49.52;65.84;;
37163;Laerm;23057;48.554;14.454;2023-07-30T06:03:59;53.50;48.90;64.47;;
37163;Laerm;23057;48.554;14.454;2023-07-30T06:06:29;49.98;48.57;63.60;;
37163;Laerm;23057;48.554;14.454;2023-07-30T06:09:00;56.94;48.58;75.75;;
37163;Laerm;23057;48.554;14.454;2023-07-30T06:11:31;57.63;49.04;75.45;;
37163;Laerm;23057;48.554;14.454;2023-07-30T06:14:02;56.67;49.27;77.29;;
37163;Laerm;23057;48.554;14.454;2023-07-30T06:16:32;55.84;49.14;71.50;;
37163;Laerm;23057;48.554;14.454;2023-07-30T06:19:03;52.24;49.06;67.10;;
37163;Laerm;23057;48.554;14.454;2023-07-30T06:21:34;50.87;48.39;58.44;;
37163;Laerm;23057;48.554;14.454;2023-07-30T06:24:05;61.51;48.67;75.44;;
37163;Laerm;23057;48.554;14.454;2023-07-30T06:26:36;62.80;49.34;79.72;;
37163;Laerm;23057;48.554;14.454;2023-07-30T06:29:06;59.19;49.56;72.37;;
37163;Laerm;23057;48.554;14.454;2023-07-30T06:31:37;59.16;49.16;75.12;;
37163;Laerm;23057;48.554;14.454;2023-07-30T06:34:08;55.83;49.80;71.23;;
37163;Laerm;23057;48.554;14.454;2023-07-30T06:36:40;57.59;49.51;71.03;;
37163;Laerm;23057;48.554;14.454;2023-07-30T06:39:11;59.89;50.00;67.35;;
37163;Laerm;23057;48.554;14.454;2023-07-30T06:41:42;57.02;49.84;70.70;;
37163;Laerm;23057;48.554;14.454;2023-07-30T06:44:13;61.06;49.65;79.15;;
37163;Laerm;23057;48.554;14.454;2023-07-30T06:46:43;57.22;49.51;68.08;;
37163;Laerm;23057;48.554;14.454;2023-07-30T06:49:14;54.59;49.43;67.32;;
37163;Laerm;23057;48.554;14.454;2023-07-30T06:51:45;52.04;48.92;64.52;;
37163;Laerm;23057;48.554;14.454;2023-07-30T06:54:16;51.36;48.83;60.45;;
37163;Laerm;23057;48.554;14.454;2023-07-30T06:56:46;57.06;49.49;74.26;;
37163;Laerm;23057;48.554;14.454;2023-07-30T06:59:17;60.55;49.30;78.03;;
37163;Laerm;23057;48.554;14.454;2023-07-30T07:01:48;64.07;50.64;74.20;;
37163;Laerm;23057;48.554;14.454;2023-07-30T07:04:19;58.51;51.05;71.38;;
37163;Laerm;23057;48.554;14.454;2023-07-30T07:06:50;60.97;48.71;74.89;;
37163;Laerm;23057;48.554;14.454;2023-07-30T07:09:20;54.39;49.11;71.52;;
37163;Laerm;23057;48.554;14.454;2023-07-30T07:11:51;55.31;49.02;68.17;;
37163;Laerm;23057;48.554;14.454;2023-07-30T07:14:22;56.12;49.43;66.26;;
37163;Laerm;23057;48.554;14.454;2023-07-30T07:16:54;57.67;49.92;68.74;;
37163;Laerm;23057;48.554;14.454;2023-07-30T07:19:28;58.39;50.01;70.57;;
37163;Laerm;23057;48.554;14.454;2023-07-30T07:21:59;65.16;50.35;80.79;;
37163;Laerm;23057;48.554;14.454;2023-07-30T07:24:29;54.85;49.94;64.74;;
37163;Laerm;23057;48.554;14.454;2023-07-30T07:27:01;60.68;49.66;73.89;;
37163;Laerm;23057;48.554;14.454;2023-07-30T07:29:32;62.80;49.79;75.04;;
37163;Laerm;23057;48.554;14.454;2023-07-30T07:32:03;61.45;50.17;72.62;;
37163;Laerm;23057;48.554;14.454;2023-07-30T07:34:34;62.10;49.85;76.85;;
37163;Laerm;23057;48.554;14.454;2023-07-30T07:37:05;65.21;50.85;77.98;;
37163;Laerm;23057;48.554;14.454;2023-07-30T07:39:36;61.70;50.48;72.92;;
37163;Laerm;23057;48.554;14.454;2023-07-30T07:42:07;67.76;51.77;73.69;;
37163;Laerm;23057;48.554;14.454;2023-07-30T07:44:38;67.32;56.43;74.23;;
37163;Laerm;23057;48.554;14.454;2023-07-30T07:47:09;65.42;53.66;74.42;;
37163;Laerm;23057;48.554;14.454;2023-07-30T07:49:40;66.13;55.13;73.82;;
37163;Laerm;23057;48.554;14.454;2023-07-30T07:52:11;62.02;50.28;73.34;;
37163;Laerm;23057;48.554;14.454;2023-07-30T07:54:42;59.33;50.07;71.03;;
37163;Laerm;23057;48.554;14.454;2023-07-30T07:57:12;59.69;50.84;70.11;;
37163;Laerm;23057;48.554;14.454;2023-07-30T07:59:43;59.16;50.25;71.80;;
37163;Laerm;23057;48.554;14.454;2023-07-30T08:02:15;56.56;49.52;68.38;;
37163;Laerm;23057;48.554;14.454;2023-07-30T08:04:46;54.71;50.58;70.73;;
37163;Laerm;23057;48.554;14.454;2023-07-30T08:07:17;61.27;51.02;73.04;;
37163;Laerm;23057;48.554;14.454;2023-07-30T08:09:48;58.83;52.76;74.87;;
37163;Laerm;23057;48.554;14.454;2023-07-30T08:12:19;60.17;51.02;69.51;;
37163;Laerm;23057;48.554;14.454;2023-07-30T08:14:50;58.47;53.33;63.52;;
37163;Laerm;23057;48.554;14.454;2023-07-30T08:17:22;61.12;55.19;66.24;;
37163;Laerm;23057;48.554;14.454;2023-07-30T08:19:53;60.08;50.50;68.18;;
37163;Laerm;23057;48.554;14.454;2023-07-30T08:22:31;58.35;49.59;71.79;;
37163;Laerm;23057;48.554;14.454;2023-07-30T08:25:04;59.44;51.64;68.67;;
37163;Laerm;23057;48.554;14.454;2023-07-30T08:27:35;58.20;50.88;72.62;;
37163;Laerm;23057;48.554;14.454;2023-07-30T08:30:16;66.90;52.30;76.76;;
37163;Laerm;23057;48.554;14.454;2023-07-30T08:32:48;68.89;51.50;78.90;;
37163;Laerm;23057;48.554;14.454;2023-07-30T08:35:19;61.71;50.17;73.81;;
37163;Laerm;23057;48.554;14.454;2023-07-30T08:37:50;62.24;51.10;70.55;;
37163;Laerm;23057;48.554;14.454;2023-07-30T08:40:22;64.06;52.03;77.87;;
37163;Laerm;23057;48.554;14.454;2023-07-30T08:42:56;64.12;50.44;82.15;;
37163;Laerm;23057;48.554;14.454;2023-07-30T08:45:27;63.77;52.45;79.05;;
37163;Laerm;23057;48.554;14.454;2023-07-30T08:47:57;64.35;53.52;80.41;;
37163;Laerm;23057;48.554;14.454;2023-07-30T08:50:29;59.18;50.96;78.54;;
37163;Laerm;23057;48.554;14.454;2023-07-30T08:53:02;67.82;50.69;87.62;;
37163;Laerm;23057;48.554;14.454;2023-07-30T08:55:34;72.19;54.04;89.10;;
37163;Laerm;23057;48.554;14.454;2023-07-30T08:58:08;70.94;53.49;82.46;;
37163;Laerm;23057;48.554;14.454;2023-07-30T09:00:42;68.84;55.36;81.68;;
37163;Laerm;23057;48.554;14.454;2023-07-30T09:03:17;71.55;50.95;84.28;;
37163;Laerm;23057;48.554;14.454;2023-07-30T09:05:48;70.59;50.34;84.03;;
37163;Laerm;23057;48.554;14.454;2023-07-30T09:08:20;63.14;49.81;81.07;;
37163;Laerm;23057;48.554;14.454;2023-07-30T09:10:53;59.40;50.34;69.59;;
37163;Laerm;23057;48.554;14.454;2023-07-30T09:13:24;58.82;52.45;69.47;;
37163;Laerm;23057;48.554;14.454;2023-07-30T09:15:54;58.12;52.11;67.62;;
37163;Laerm;23057;48.554;14.454;2023-07-30T09:18:25;59.65;52.22;71.62;;
37163;Laerm;23057;48.554;14.454;2023-07-30T09:20:56;57.48;48.60;66.40;;
37163;Laerm;23057;48.554;14.454;2023-07-30T09:23:27;57.51;49.94;64.27;;
37163;Laerm;23057;48.554;14.454;2023-07-30T09:25:58;57.30;49.47;66.69;;
37163;Laerm;23057;48.554;14.454;2023-07-30T09:28:32;63.97;51.56;72.33;;
37163;Laerm;23057;48.554;14.454;2023-07-30T09:31:08;60.99;52.85;68.29;;
37163;Laerm;23057;48.554;14.454;2023-07-30T09:33:42;66.40;52.98;84.16;;
37163;Laerm;23057;48.554;14.454;2023-07-30T09:36:15;67.42;54.29;82.46;;
37163;Laerm;23057;48.554;14.454;2023-07-30T09:38:46;64.39;50.78;81.90;;
37163;Laerm;23057;48.554;14.454;2023-07-30T09:41:17;54.95;49.78;74.81;;
37163;Laerm;23057;48.554;14.454;2023-07-30T09:43:58;60.21;49.49;79.51;;
37163;Laerm;23057;48.554;14.454;2023-07-30T09:46:29;69.55;50.16;88.70;;
37163;Laerm;23057;48.554;14.454;2023-07-30T09:49:03;66.35;49.79;83.75;;
37163;Laerm;23057;48.554;14.454;2023-07-30T09:51:40;58.29;49.89;72.33;;
37163;Laerm;23057;48.554;14.454;2023-07-30T09:54:14;67.66;49.63;77.63;;
37163;Laerm;23057;48.554;14.454;2023-07-30T09:56:45;58.86;49.14;73.23;;
37163;Laerm;23057;48.554;14.454;2023-07-30T09:59:16;71.44;50.06;81.82;;
37163;Laerm;23057;48.554;14.454;2023-07-30T10:01:49;72.07;50.82;81.88;;
37163;Laerm;23057;48.554;14.454;2023-07-30T10:04:21;72.58;53.20;78.53;;
37163;Laerm;23057;48.554;14.454;2023-07-30T10:07:06;72.52;51.70;78.31;;
37163;Laerm;23057;48.554;14.454;2023-07-30T10:09:43;71.10;50.90;79.59;;
37163;Laerm;23057;48.554;14.454;2023-07-30T10:12:31;69.43;53.84;78.18;;
37163;Laerm;23057;48.554;14.454;2023-07-30T10:15:04;68.63;51.71;78.42;;
37163;Laerm;23057;48.554;14.454;2023-07-30T10:17:37;70.54;50.12;80.70;;
37163;Laerm;23057;48.554;14.454;2023-07-30T10:20:28;70.48;50.31;79.44;;
37163;Laerm;23057;48.554;14.454;2023-07-30T10:23:05;71.25;50.92;78.85;;
37163;Laerm;23057;48.554;14.454;2023-07-30T10:25:52;69.99;50.95;78.39;;
37163;Laerm;23057;48.554;14.454;2023-07-30T10:28:41;69.02;50.56;77.93;;
37163;Laerm;23057;48.554;14.454;2023-07-30T10:31:15;68.37;50.92;76.24;;
37163;Laerm;23057;48.554;14.454;2023-07-30T10:33:53;66.78;51.17;75.69;;
37163;Laerm;23057;48.554;14.454;2023-07-30T10:36:40;66.99;51.26;75.24;;
37163;Laerm;23057;48.554;14.454;2023-07-30T10:39:18;68.34;51.24;78.64;;
37163;Laerm;23057;48.554;14.454;2023-07-30T10:41:55;65.47;50.46;75.33;;
37163;Laerm;23057;48.554;14.454;2023-07-30T10:44:32;66.96;51.22;76.66;;
37163;Laerm;23057;48.554;14.454;2023-07-30T10:47:04;66.03;51.12;75.51;;
37163;Laerm;23057;48.554;14.454;2023-07-30T10:49:39;66.36;49.92;74.61;;
37163;Laerm;23057;48.554;14.454;2023-07-30T10:52:17;66.28;49.69;75.34;;
37163;Laerm;23057;48.554;14.454;2023-07-30T10:54:47;66.69;50.96;77.28;;
37163;Laerm;23057;48.554;14.454;2023-07-30T10:57:19;66.01;50.30;75.59;;
37163;Laerm;23057;48.554;14.454;2023-07-30T10:59:50;68.36;50.40;77.48;;
37163;Laerm;23057;48.554;14.454;2023-07-30T11:02:22;68.22;50.76;75.92;;
37163;Laerm;23057;48.554;14.454;2023-07-30T11:04:53;67.86;51.47;75.82;;
37163;Laerm;23057;48.554;14.454;2023-07-30T11:07:24;67.18;51.03;76.62;;
37163;Laerm;23057;48.554;14.454;2023-07-30T11:10:01;71.89;53.30;77.72;;
37163;Laerm;23057;48.554;14.454;2023-07-30T11:12:32;71.24;53.06;79.54;;
37163;Laerm;23057;48.554;14.454;2023-07-30T11:15:04;58.64;54.27;74.96;;
37163;Laerm;23057;48.554;14.454;2023-07-30T11:17:35;61.96;54.48;82.18;;
37163;Laerm;23057;48.554;14.454;2023-07-30T11:20:07;62.86;52.98;79.92;;
37163;Laerm;23057;48.554;14.454;2023-07-30T11:22:38;66.07;53.40;81.66;;
37163;Laerm;23057;48.554;14.454;2023-07-30T11:25:19;72.66;51.36;90.83;;
37163;Laerm;23057;48.554;14.454;2023-07-30T11:27:51;61.63;53.69;81.68;;
37163;Laerm;23057;48.554;14.454;2023-07-30T11:30:22;79.55;50.36;93.83;;
37163;Laerm;23057;48.554;14.454;2023-07-30T11:32:53;65.19;53.31;84.21;;
37163;Laerm;23057;48.554;14.454;2023-07-30T11:35:24;63.14;54.72;75.01;;
37163;Laerm;23057;48.554;14.454;2023-07-30T11:37:55;62.88;52.78;76.34;;
37163;Laerm;23057;48.554;14.454;2023-07-30T11:40:28;63.22;55.27;82.20;;
37163;Laerm;23057;48.554;14.454;2023-07-30T11:42:59;62.71;55.58;73.43;;
37163;Laerm;23057;48.554;14.454;2023-07-30T11:45:30;77.53;55.78;90.01;;
37163;Laerm;23057;48.554;14.454;2023-07-30T11:48:11;79.91;51.60;89.64;;
37163;Laerm;23057;48.554;14.454;2023-07-30T11:50:51;58.59;52.00;78.09;;
37163;Laerm;23057;48.554;14.454;2023-07-30T11:53:22;60.72;51.89;75.36;;
37163;Laerm;23057;48.554;14.454;2023-07-30T11:55:52;68.17;50.68;88.99;;
37163;Laerm;23057;48.554;14.454;2023-07-30T11:58:28;61.35;51.55;73.82;;
37163;Laerm;23057;48.554;14.454;2023-07-30T12:00:59;66.53;49.25;81.60;;
37163;Laerm;23057;48.554;14.454;2023-07-30T12:03:30;55.84;48.85;71.34;;
37163;Laerm;23057;48.554;14.454;2023-07-30T12:06:06;56.45;50.49;68.71;;
37163;Laerm;23057;48.554;14.454;2023-07-30T12:08:38;58.00;51.84;71.01;;
37163;Laerm;23057;48.554;14.454;2023-07-30T12:11:10;69.96;49.03;86.66;;
37163;Laerm;23057;48.554;14.454;2023-07-30T12:13:45;66.20;51.07;85.09;;
37163;Laerm;23057;48.554;14.454;2023-07-30T12:16:16;59.20;50.30;79.74;;
37163;Laerm;23057;48.554;14.454;2023-07-30T12:18:47;63.36;50.24;79.09;;
37163;Laerm;23057;48.554;14.454;2023-07-30T12:21:17;66.23;58.73;76.68;;
37163;Laerm;23057;48.554;14.454;2023-07-30T12:23:48;65.04;51.37;81.01;;
37163;Laerm;23057;48.554;14.454;2023-07-30T12:26:19;60.09;50.97;69.44;;
37163;Laerm;23057;48.554;14.454;2023-07-30T12:28:50;58.25;51.00;72.59;;
37163;Laerm;23057;48.554;14.454;2023-07-30T12:31:21;70.82;55.79;76.91;;
37163;Laerm;23057;48.554;14.454;2023-07-30T12:33:52;65.50;57.25;71.37;;
37163;Laerm;23057;48.554;14.454;2023-07-30T12:36:23;61.13;49.52;72.66;;
37163;Laerm;23057;48.554;14.454;2023-07-30T12:38:54;61.52;52.26;72.36;;
37163;Laerm;23057;48.554;14.454;2023-07-30T12:41:25;65.83;51.39;75.70;;
37163;Laerm;23057;48.554;14.454;2023-07-30T12:43:58;57.70;50.14;75.25;;
37163;Laerm;23057;48.554;14.454;2023-07-30T12:46:29;58.95;49.97;76.21;;
37163;Laerm;23057;48.554;14.454;2023-07-30T12:49:00;68.07;51.49;81.37;;
37163;Laerm;23057;48.554;14.454;2023-07-30T12:51:34;64.31;52.70;83.87;;
37163;Laerm;23057;48.554;14.454;2023-07-30T12:54:05;62.17;52.04;77.58;;
37163;Laerm;23057;48.554;14.454;2023-07-30T12:56:36;70.90;54.11;83.38;;
37163;Laerm;23057;48.554;14.454;2023-07-30T12:59:07;69.33;52.21;89.97;;
37163;Laerm;23057;48.554;14.454;2023-07-30T13:01:37;67.81;50.20;89.36;;
37163;Laerm;23057;48.554;14.454;2023-07-30T13:04:08;57.61;50.79;72.67;;
37163;Laerm;23057;48.554;14.454;2023-07-30T13:06:39;60.40;50.33;75.29;;
37163;Laerm;23057;48.554;14.454;2023-07-30T13:09:10;62.55;51.50;69.93;;
37163;Laerm;23057;48.554;14.454;2023-07-30T13:11:40;58.39;50.39;67.74;;
37163;Laerm;23057;48.554;14.454;2023-07-30T13:14:12;58.94;50.49;66.82;;
37163;Laerm;23057;48.554;14.454;2023-07-30T13:16:42;61.01;51.87;76.07;;
37163;Laerm;23057;48.554;14.454;2023-07-30T13:19:13;56.91;50.51;64.31;;
37163;Laerm;23057;48.554;14.454;2023-07-30T13:21:44;56.92;49.97;71.83;;
37163;Laerm;23057;48.554;14.454;2023-07-30T13:24:15;58.54;50.23;69.12;;
37163;Laerm;23057;48.554;14.454;2023-07-30T13:26:46;59.85;50.58;67.88;;
37163;Laerm;23057;48.554;14.454;2023-07-30T13:29:16;58.31;49.83;69.41;;
37163;Laerm;23057;48.554;14.454;2023-07-30T13:31:47;53.78;50.01;64.84;;
37163;Laerm;23057;48.554;14.454;2023-07-30T13:34:18;54.47;49.64;65.73;;
37163;Laerm;23057;48.554;14.454;2023-07-30T13:36:50;55.54;49.87;65.10;;
37163;Laerm;23057;48.554;14.454;2023-07-30T13:39:21;54.25;49.81;65.16;;
37163;Laerm;23057;48.554;14.454;2023-07-30T13:41:51;58.03;50.29;71.31;;
37163;Laerm;23057;48.554;14.454;2023-07-30T13:44:22;64.15;51.65;73.57;;
37163;Laerm;23057;48.554;14.454;2023-07-30T13:46:53;60.13;52.24;73.03;;
37163;Laerm;23057;48.554;14.454;2023-07-30T13:49:24;62.05;51.17;73.67;;
37163;Laerm;23057;48.554;14.454;2023-07-30T13:51:55;56.33;51.72;74.03;;
37163;Laerm;23057;48.554;14.454;2023-07-30T13:54:25;56.02;50.92;66.38;;
37163;Laerm;23057;48.554;14.454;2023-07-30T13:56:56;56.40;50.27;68.17;;